sensor_id;sensor_type;location;lat;lon;timestamp;temperature;humidity
30648;DHT22;17683;53.360;9.736;2022-10-16T00:00:30;13.70;99.90
30648;DHT22;17683;53.360;9.736;2022-10-16T00:02:56;13.80;99.90
30648;DHT22;17683;53.360;9.736;2022-10-16T00:05:22;13.70;99.90
30648;DHT22;17683;53.360;9.736;2022-10-16T00:07:48;13.70;99.90
30648;DHT22;17683;53.360;9.736;2022-10-16T00:10:13;13.70;99.90
30648;DHT22;17683;53.360;9.736;2022-10-16T00:12:39;13.70;99.90
30648;DHT22;17683;53.360;9.736;2022-10-16T00:15:05;13.70;99.90
30648;DHT22;17683;53.360;9.736;2022-10-16T00:17:31;13.60;99.90
30648;DHT22;17683;53.360;9.736;2022-10-16T00:19:57;13.60;99.90
30648;DHT22;17683;53.360;9.736;2022-10-16T00:22:23;13.60;99.90
30648;DHT22;17683;53.360;9.736;2022-10-16T00:24:49;13.50;99.90
30648;DHT22;17683;53.360;9.736;2022-10-16T00:27:15;13.50;99.90
30648;DHT22;17683;53.360;9.736;2022-10-16T00:29:42;13.50;99.90
30648;DHT22;17683;53.360;9.736;2022-10-16T00:32:08;13.50;99.90
30648;DHT22;17683;53.360;9.736;2022-10-16T00:34:33;13.50;99.90
30648;DHT22;17683;53.360;9.736;2022-10-16T00:36:59;13.50;99.90
30648;DHT22;17683;53.360;9.736;2022-10-16T00:39:25;13.50;99.90
30648;DHT22;17683;53.360;9.736;2022-10-16T00:41:51;13.50;99.90
30648;DHT22;17683;53.360;9.736;2022-10-16T00:44:46;13.50;99.90
30648;DHT22;17683;53.360;9.736;2022-10-16T00:47:34;13.40;99.90
30648;DHT22;17683;53.360;9.736;2022-10-16T00:50:09;13.40;99.90
30648;DHT22;17683;53.360;9.736;2022-10-16T00:52:40;13.40;99.90
30648;DHT22;17683;53.360;9.736;2022-10-16T00:55:08;13.40;99.90
30648;DHT22;17683;53.360;9.736;2022-10-16T00:57:35;13.40;99.90
30648;DHT22;17683;53.360;9.736;2022-10-16T01:00:02;13.40;99.90
30648;DHT22;17683;53.360;9.736;2022-10-16T01:02:28;13.40;99.90
30648;DHT22;17683;53.360;9.736;2022-10-16T01:04:54;13.30;99.90
30648;DHT22;17683;53.360;9.736;2022-10-16T01:20:54;13.20;99.90
30648;DHT22;17683;53.360;9.736;2022-10-16T01:28:54;13.20;99.90
30648;DHT22;17683;53.360;9.736;2022-10-16T01:31:25;13.10;99.90
30648;DHT22;17683;53.360;9.736;2022-10-16T01:34:00;13.10;99.90
30648;DHT22;17683;53.360;9.736;2022-10-16T01:36:37;13.10;99.90
30648;DHT22;17683;53.360;9.736;2022-10-16T01:39:05;13.10;99.90
30648;DHT22;17683;53.360;9.736;2022-10-16T01:41:36;13.10;99.90
30648;DHT22;17683;53.360;9.736;2022-10-16T01:44:19;13.00;99.90
30648;DHT22;17683;53.360;9.736;2022-10-16T01:46:48;13.00;99.90
30648;DHT22;17683;53.360;9.736;2022-10-16T01:49:16;13.00;99.90
30648;DHT22;17683;53.360;9.736;2022-10-16T01:51:45;13.00;99.90
30648;DHT22;17683;53.360;9.736;2022-10-16T01:54:14;13.00;99.90
30648;DHT22;17683;53.360;9.736;2022-10-16T01:56:41;13.00;99.90
30648;DHT22;17683;53.360;9.736;2022-10-16T01:59:13;13.00;99.90
30648;DHT22;17683;53.360;9.736;2022-10-16T02:01:45;13.00;99.90
30648;DHT22;17683;53.360;9.736;2022-10-16T02:04:20;13.00;99.90
30648;DHT22;17683;53.360;9.736;2022-10-16T02:06:47;13.00;99.90
30648;DHT22;17683;53.360;9.736;2022-10-16T02:09:13;12.90;99.90
30648;DHT22;17683;53.360;9.736;2022-10-16T02:11:41;13.00;99.90
30648;DHT22;17683;53.360;9.736;2022-10-16T02:14:07;12.90;99.90
30648;DHT22;17683;53.360;9.736;2022-10-16T02:16:41;12.90;99.90
30648;DHT22;17683;53.360;9.736;2022-10-16T02:19:08;12.90;99.90
30648;DHT22;17683;53.360;9.736;2022-10-16T02:21:54;12.80;99.90
30648;DHT22;17683;53.360;9.736;2022-10-16T02:27:00;12.80;99.90
30648;DHT22;17683;53.360;9.736;2022-10-16T02:29:29;12.80;99.90
30648;DHT22;17683;53.360;9.736;2022-10-16T02:32:03;12.80;99.90
30648;DHT22;17683;53.360;9.736;2022-10-16T02:34:32;12.80;99.90
30648;DHT22;17683;53.360;9.736;2022-10-16T02:36:59;12.70;99.90
30648;DHT22;17683;53.360;9.736;2022-10-16T02:39:28;12.70;99.90
30648;DHT22;17683;53.360;9.736;2022-10-16T02:41:54;12.70;99.90
30648;DHT22;17683;53.360;9.736;2022-10-16T02:44:20;12.60;99.90
30648;DHT22;17683;53.360;9.736;2022-10-16T02:46:45;12.60;99.90
30648;DHT22;17683;53.360;9.736;2022-10-16T02:49:11;12.60;99.90
30648;DHT22;17683;53.360;9.736;2022-10-16T02:51:37;12.60;99.90
30648;DHT22;17683;53.360;9.736;2022-10-16T02:54:03;12.50;99.90
30648;DHT22;17683;53.360;9.736;2022-10-16T02:56:29;12.50;99.90
30648;DHT22;17683;53.360;9.736;2022-10-16T02:58:56;12.50;99.90
30648;DHT22;17683;53.360;9.736;2022-10-16T03:01:22;12.40;99.90
30648;DHT22;17683;53.360;9.736;2022-10-16T03:03:47;12.50;99.90
30648;DHT22;17683;53.360;9.736;2022-10-16T03:06:13;12.40;99.90
30648;DHT22;17683;53.360;9.736;2022-10-16T03:08:39;12.40;99.90
30648;DHT22;17683;53.360;9.736;2022-10-16T03:11:05;12.40;99.90
30648;DHT22;17683;53.360;9.736;2022-10-16T03:13:31;12.40;99.90
30648;DHT22;17683;53.360;9.736;2022-10-16T03:15:56;12.30;99.90
30648;DHT22;17683;53.360;9.736;2022-10-16T03:18:22;12.30;99.90
30648;DHT22;17683;53.360;9.736;2022-10-16T03:20:48;12.30;99.90
30648;DHT22;17683;53.360;9.736;2022-10-16T03:23:13;12.20;99.90
30648;DHT22;17683;53.360;9.736;2022-10-16T03:25:39;12.20;99.90
30648;DHT22;17683;53.360;9.736;2022-10-16T03:28:05;12.20;99.90
30648;DHT22;17683;53.360;9.736;2022-10-16T03:30:31;12.20;99.90
30648;DHT22;17683;53.360;9.736;2022-10-16T03:32:56;12.20;99.90
30648;DHT22;17683;53.360;9.736;2022-10-16T03:35:23;12.20;99.90
30648;DHT22;17683;53.360;9.736;2022-10-16T03:37:49;12.20;99.90
30648;DHT22;17683;53.360;9.736;2022-10-16T03:40:16;12.20;99.90
30648;DHT22;17683;53.360;9.736;2022-10-16T03:42:43;12.20;99.90
30648;DHT22;17683;53.360;9.736;2022-10-16T03:45:09;12.20;99.90
30648;DHT22;17683;53.360;9.736;2022-10-16T03:47:35;12.10;99.90
30648;DHT22;17683;53.360;9.736;2022-10-16T03:50:00;12.20;99.90
30648;DHT22;17683;53.360;9.736;2022-10-16T03:52:26;12.10;99.90
30648;DHT22;17683;53.360;9.736;2022-10-16T03:54:52;12.20;99.90
30648;DHT22;17683;53.360;9.736;2022-10-16T03:57:18;12.20;99.90
30648;DHT22;17683;53.360;9.736;2022-10-16T03:59:44;12.10;99.90
30648;DHT22;17683;53.360;9.736;2022-10-16T04:02:10;12.10;99.90
30648;DHT22;17683;53.360;9.736;2022-10-16T04:04:35;12.10;99.90
30648;DHT22;17683;53.360;9.736;2022-10-16T04:07:01;12.10;99.90
30648;DHT22;17683;53.360;9.736;2022-10-16T04:09:27;12.10;99.90
30648;DHT22;17683;53.360;9.736;2022-10-16T04:11:53;12.10;99.90
30648;DHT22;17683;53.360;9.736;2022-10-16T04:14:18;12.10;99.90
30648;DHT22;17683;53.360;9.736;2022-10-16T04:16:44;12.00;99.90
30648;DHT22;17683;53.360;9.736;2022-10-16T04:19:11;12.00;99.90
30648;DHT22;17683;53.360;9.736;2022-10-16T04:21:37;12.00;99.90
30648;DHT22;17683;53.360;9.736;2022-10-16T04:24:03;12.00;99.90
30648;DHT22;17683;53.360;9.736;2022-10-16T04:26:29;12.00;99.90
30648;DHT22;17683;53.360;9.736;2022-10-16T04:28:55;12.00;99.90
30648;DHT22;17683;53.360;9.736;2022-10-16T04:31:21;12.00;99.90
30648;DHT22;17683;53.360;9.736;2022-10-16T04:33:47;12.00;99.90
30648;DHT22;17683;53.360;9.736;2022-10-16T04:36:13;12.00;99.90
30648;DHT22;17683;53.360;9.736;2022-10-16T04:38:39;12.00;99.90
30648;DHT22;17683;53.360;9.736;2022-10-16T04:41:06;12.00;99.90
30648;DHT22;17683;53.360;9.736;2022-10-16T04:43:32;11.90;99.90
30648;DHT22;17683;53.360;9.736;2022-10-16T04:45:57;11.90;99.90
30648;DHT22;17683;53.360;9.736;2022-10-16T04:48:23;11.90;99.90
30648;DHT22;17683;53.360;9.736;2022-10-16T04:50:49;11.90;99.90
30648;DHT22;17683;53.360;9.736;2022-10-16T04:53:15;11.90;99.90
30648;DHT22;17683;53.360;9.736;2022-10-16T04:55:41;12.00;99.90
30648;DHT22;17683;53.360;9.736;2022-10-16T04:58:07;12.00;99.90
30648;DHT22;17683;53.360;9.736;2022-10-16T05:00:34;12.00;99.90
30648;DHT22;17683;53.360;9.736;2022-10-16T05:02:59;12.00;99.90
30648;DHT22;17683;53.360;9.736;2022-10-16T05:05:26;11.90;99.90
30648;DHT22;17683;53.360;9.736;2022-10-16T05:07:52;11.90;99.90
30648;DHT22;17683;53.360;9.736;2022-10-16T05:10:18;11.90;99.90
30648;DHT22;17683;53.360;9.736;2022-10-16T05:12:44;11.90;99.90
30648;DHT22;17683;53.360;9.736;2022-10-16T05:15:10;12.00;99.90
30648;DHT22;17683;53.360;9.736;2022-10-16T05:17:36;12.00;99.90
30648;DHT22;17683;53.360;9.736;2022-10-16T05:20:02;11.90;99.90
30648;DHT22;17683;53.360;9.736;2022-10-16T05:22:28;11.90;99.90
30648;DHT22;17683;53.360;9.736;2022-10-16T05:24:54;11.90;99.90
30648;DHT22;17683;53.360;9.736;2022-10-16T05:27:20;11.90;99.90
30648;DHT22;17683;53.360;9.736;2022-10-16T05:29:47;11.90;99.90
30648;DHT22;17683;53.360;9.736;2022-10-16T05:32:14;11.90;99.90
30648;DHT22;17683;53.360;9.736;2022-10-16T05:34:40;11.90;99.90
30648;DHT22;17683;53.360;9.736;2022-10-16T05:37:06;11.90;99.90
30648;DHT22;17683;53.360;9.736;2022-10-16T05:39:32;11.90;99.90
30648;DHT22;17683;53.360;9.736;2022-10-16T05:41:58;11.90;99.90
30648;DHT22;17683;53.360;9.736;2022-10-16T05:44:23;11.90;99.90
30648;DHT22;17683;53.360;9.736;2022-10-16T05:46:49;11.90;99.90
30648;DHT22;17683;53.360;9.736;2022-10-16T05:49:15;11.90;99.90
30648;DHT22;17683;53.360;9.736;2022-10-16T05:51:41;11.90;99.90
30648;DHT22;17683;53.360;9.736;2022-10-16T05:54:07;11.90;99.90
30648;DHT22;17683;53.360;9.736;2022-10-16T05:56:33;11.90;99.90
30648;DHT22;17683;53.360;9.736;2022-10-16T05:58:59;11.90;99.90
30648;DHT22;17683;53.360;9.736;2022-10-16T06:01:24;11.90;99.90
30648;DHT22;17683;53.360;9.736;2022-10-16T06:03:51;12.00;99.90
30648;DHT22;17683;53.360;9.736;2022-10-16T06:06:21;12.00;99.90
30648;DHT22;17683;53.360;9.736;2022-10-16T06:08:48;12.00;99.90
30648;DHT22;17683;53.360;9.736;2022-10-16T06:11:20;12.00;99.90
30648;DHT22;17683;53.360;9.736;2022-10-16T06:13:49;12.00;99.90
30648;DHT22;17683;53.360;9.736;2022-10-16T06:16:15;12.10;99.90
30648;DHT22;17683;53.360;9.736;2022-10-16T06:18:41;12.10;99.90
30648;DHT22;17683;53.360;9.736;2022-10-16T06:21:14;12.00;99.90
30648;DHT22;17683;53.360;9.736;2022-10-16T06:23:41;12.00;99.90
30648;DHT22;17683;53.360;9.736;2022-10-16T06:26:09;12.10;99.90
30648;DHT22;17683;53.360;9.736;2022-10-16T06:28:34;12.10;99.90
30648;DHT22;17683;53.360;9.736;2022-10-16T06:31:02;12.10;99.90
30648;DHT22;17683;53.360;9.736;2022-10-16T06:33:28;12.20;99.90
30648;DHT22;17683;53.360;9.736;2022-10-16T06:35:59;12.20;99.90
30648;DHT22;17683;53.360;9.736;2022-10-16T06:38:25;12.20;99.90
30648;DHT22;17683;53.360;9.736;2022-10-16T06:40:50;12.10;99.90
30648;DHT22;17683;53.360;9.736;2022-10-16T06:43:16;12.20;99.90
30648;DHT22;17683;53.360;9.736;2022-10-16T06:45:42;12.20;99.90
30648;DHT22;17683;53.360;9.736;2022-10-16T06:48:07;12.30;99.90
30648;DHT22;17683;53.360;9.736;2022-10-16T06:50:33;12.30;99.90
30648;DHT22;17683;53.360;9.736;2022-10-16T06:52:59;12.30;99.90
30648;DHT22;17683;53.360;9.736;2022-10-16T06:55:24;12.40;99.90
30648;DHT22;17683;53.360;9.736;2022-10-16T06:57:50;12.40;99.90
30648;DHT22;17683;53.360;9.736;2022-10-16T07:00:15;12.50;99.90
30648;DHT22;17683;53.360;9.736;2022-10-16T07:02:41;12.50;99.90
30648;DHT22;17683;53.360;9.736;2022-10-16T07:05:07;12.50;99.90
30648;DHT22;17683;53.360;9.736;2022-10-16T07:07:33;12.60;99.90
30648;DHT22;17683;53.360;9.736;2022-10-16T07:09:59;12.70;99.90
30648;DHT22;17683;53.360;9.736;2022-10-16T07:12:25;12.70;99.90
30648;DHT22;17683;53.360;9.736;2022-10-16T07:14:50;12.80;99.90
30648;DHT22;17683;53.360;9.736;2022-10-16T07:17:17;12.80;99.90
30648;DHT22;17683;53.360;9.736;2022-10-16T07:19:44;12.90;99.90
30648;DHT22;17683;53.360;9.736;2022-10-16T07:22:10;13.00;99.90
30648;DHT22;17683;53.360;9.736;2022-10-16T07:24:35;13.00;99.90
30648;DHT22;17683;53.360;9.736;2022-10-16T07:27:01;13.00;99.90
30648;DHT22;17683;53.360;9.736;2022-10-16T07:29:27;13.10;99.90
30648;DHT22;17683;53.360;9.736;2022-10-16T07:31:53;13.10;99.90
30648;DHT22;17683;53.360;9.736;2022-10-16T07:34:19;13.10;99.90
30648;DHT22;17683;53.360;9.736;2022-10-16T07:36:50;13.20;99.90
30648;DHT22;17683;53.360;9.736;2022-10-16T07:39:16;13.30;99.90
30648;DHT22;17683;53.360;9.736;2022-10-16T07:41:42;13.30;99.90
30648;DHT22;17683;53.360;9.736;2022-10-16T07:44:08;13.40;99.90
30648;DHT22;17683;53.360;9.736;2022-10-16T07:46:35;13.50;99.90
30648;DHT22;17683;53.360;9.736;2022-10-16T07:49:02;13.60;99.90
30648;DHT22;17683;53.360;9.736;2022-10-16T07:51:28;13.60;99.90
30648;DHT22;17683;53.360;9.736;2022-10-16T07:53:53;13.70;99.90
30648;DHT22;17683;53.360;9.736;2022-10-16T07:56:20;13.80;99.90
30648;DHT22;17683;53.360;9.736;2022-10-16T07:58:46;13.90;99.90
30648;DHT22;17683;53.360;9.736;2022-10-16T08:01:14;14.00;99.90
30648;DHT22;17683;53.360;9.736;2022-10-16T08:03:46;14.00;99.90
30648;DHT22;17683;53.360;9.736;2022-10-16T08:06:12;14.20;99.90
30648;DHT22;17683;53.360;9.736;2022-10-16T08:08:37;14.20;99.90
30648;DHT22;17683;53.360;9.736;2022-10-16T08:11:03;14.30;99.90
30648;DHT22;17683;53.360;9.736;2022-10-16T08:13:30;14.30;99.90
30648;DHT22;17683;53.360;9.736;2022-10-16T08:15:55;14.40;99.90
30648;DHT22;17683;53.360;9.736;2022-10-16T08:18:21;14.50;99.90
30648;DHT22;17683;53.360;9.736;2022-10-16T08:20:47;14.50;99.90
30648;DHT22;17683;53.360;9.736;2022-10-16T08:23:13;14.60;99.90
30648;DHT22;17683;53.360;9.736;2022-10-16T08:25:40;14.60;99.90
30648;DHT22;17683;53.360;9.736;2022-10-16T08:28:07;14.70;99.90
30648;DHT22;17683;53.360;9.736;2022-10-16T08:30:34;14.70;99.90
30648;DHT22;17683;53.360;9.736;2022-10-16T08:33:00;14.80;99.90
30648;DHT22;17683;53.360;9.736;2022-10-16T08:35:26;14.90;99.90
30648;DHT22;17683;53.360;9.736;2022-10-16T08:37:51;14.90;99.90
30648;DHT22;17683;53.360;9.736;2022-10-16T08:40:26;15.10;99.90
30648;DHT22;17683;53.360;9.736;2022-10-16T08:48:27;15.30;99.90
30648;DHT22;17683;53.360;9.736;2022-10-16T08:50:55;15.40;99.90
30648;DHT22;17683;53.360;9.736;2022-10-16T08:53:27;15.40;99.90
30648;DHT22;17683;53.360;9.736;2022-10-16T08:55:55;15.50;99.90
30648;DHT22;17683;53.360;9.736;2022-10-16T08:58:22;15.60;99.90
30648;DHT22;17683;53.360;9.736;2022-10-16T09:01:12;15.70;99.90
30648;DHT22;17683;53.360;9.736;2022-10-16T09:09:48;15.90;99.90
30648;DHT22;17683;53.360;9.736;2022-10-16T09:18:02;16.00;99.90
30648;DHT22;17683;53.360;9.736;2022-10-16T09:23:19;16.10;99.90
30648;DHT22;17683;53.360;9.736;2022-10-16T09:25:47;16.10;99.90
30648;DHT22;17683;53.360;9.736;2022-10-16T09:28:14;16.10;99.90
30648;DHT22;17683;53.360;9.736;2022-10-16T09:30:40;16.10;99.90
30648;DHT22;17683;53.360;9.736;2022-10-16T09:33:09;16.20;99.90
30648;DHT22;17683;53.360;9.736;2022-10-16T09:35:47;16.30;99.90
30648;DHT22;17683;53.360;9.736;2022-10-16T09:38:31;16.30;99.90
30648;DHT22;17683;53.360;9.736;2022-10-16T09:41:40;16.30;99.90
30648;DHT22;17683;53.360;9.736;2022-10-16T09:43:53;16.30;99.90
30648;DHT22;17683;53.360;9.736;2022-10-16T09:46:34;16.40;99.90
30648;DHT22;17683;53.360;9.736;2022-10-16T09:49:18;16.40;99.90
30648;DHT22;17683;53.360;9.736;2022-10-16T09:51:45;16.50;99.90
30648;DHT22;17683;53.360;9.736;2022-10-16T09:54:19;16.50;99.90
30648;DHT22;17683;53.360;9.736;2022-10-16T09:56:45;16.50;99.90
30648;DHT22;17683;53.360;9.736;2022-10-16T09:59:16;16.50;99.90
30648;DHT22;17683;53.360;9.736;2022-10-16T10:01:43;16.60;99.90
30648;DHT22;17683;53.360;9.736;2022-10-16T10:04:10;16.70;99.90
30648;DHT22;17683;53.360;9.736;2022-10-16T10:06:41;16.80;99.90
30648;DHT22;17683;53.360;9.736;2022-10-16T10:09:21;16.80;99.90
30648;DHT22;17683;53.360;9.736;2022-10-16T10:12:01;16.80;99.90
30648;DHT22;17683;53.360;9.736;2022-10-16T10:14:47;16.80;99.90
30648;DHT22;17683;53.360;9.736;2022-10-16T10:17:22;16.90;99.90
30648;DHT22;17683;53.360;9.736;2022-10-16T10:19:53;17.00;99.90
30648;DHT22;17683;53.360;9.736;2022-10-16T10:28:09;17.20;99.90
30648;DHT22;17683;53.360;9.736;2022-10-16T10:31:14;17.20;99.90
30648;DHT22;17683;53.360;9.736;2022-10-16T10:36:38;17.40;99.90
30648;DHT22;17683;53.360;9.736;2022-10-16T10:39:25;17.40;99.90
30648;DHT22;17683;53.360;9.736;2022-10-16T10:42:28;17.40;99.90
30648;DHT22;17683;53.360;9.736;2022-10-16T10:45:18;17.40;99.90
30648;DHT22;17683;53.360;9.736;2022-10-16T10:50:57;17.40;99.90
30648;DHT22;17683;53.360;9.736;2022-10-16T10:53:48;17.50;99.90
30648;DHT22;17683;53.360;9.736;2022-10-16T10:56:55;17.60;99.90
30648;DHT22;17683;53.360;9.736;2022-10-16T10:59:46;17.60;99.90
30648;DHT22;17683;53.360;9.736;2022-10-16T11:10:53;17.80;99.90
30648;DHT22;17683;53.360;9.736;2022-10-16T11:13:31;17.80;99.90
30648;DHT22;17683;53.360;9.736;2022-10-16T11:16:01;17.90;99.90
30648;DHT22;17683;53.360;9.736;2022-10-16T11:18:39;17.90;99.90
30648;DHT22;17683;53.360;9.736;2022-10-16T11:21:10;17.90;99.90
30648;DHT22;17683;53.360;9.736;2022-10-16T11:24:14;18.00;99.90
30648;DHT22;17683;53.360;9.736;2022-10-16T11:26:43;18.10;99.90
30648;DHT22;17683;53.360;9.736;2022-10-16T11:29:28;18.20;99.90
30648;DHT22;17683;53.360;9.736;2022-10-16T11:32:03;18.30;99.90
30648;DHT22;17683;53.360;9.736;2022-10-16T11:34:43;18.40;99.90
30648;DHT22;17683;53.360;9.736;2022-10-16T11:39:43;18.50;99.90
30648;DHT22;17683;53.360;9.736;2022-10-16T11:42:29;18.50;99.90
30648;DHT22;17683;53.360;9.736;2022-10-16T11:45:21;18.50;99.90
30648;DHT22;17683;53.360;9.736;2022-10-16T11:47:54;18.50;99.90
30648;DHT22;17683;53.360;9.736;2022-10-16T11:55:44;18.20;99.90
30648;DHT22;17683;53.360;9.736;2022-10-16T11:58:33;18.10;99.90
30648;DHT22;17683;53.360;9.736;2022-10-16T12:03:51;18.10;99.90
30648;DHT22;17683;53.360;9.736;2022-10-16T12:06:31;18.10;99.90
30648;DHT22;17683;53.360;9.736;2022-10-16T12:08:59;18.10;99.90
30648;DHT22;17683;53.360;9.736;2022-10-16T12:19:19;18.30;99.90
30648;DHT22;17683;53.360;9.736;2022-10-16T12:21:45;18.30;99.90
30648;DHT22;17683;53.360;9.736;2022-10-16T12:26:57;18.20;99.90
30648;DHT22;17683;53.360;9.736;2022-10-16T12:29:29;18.20;99.90
30648;DHT22;17683;53.360;9.736;2022-10-16T12:31:56;18.20;99.90
30648;DHT22;17683;53.360;9.736;2022-10-16T12:34:41;18.20;99.90
30648;DHT22;17683;53.360;9.736;2022-10-16T12:39:35;18.10;99.90
30648;DHT22;17683;53.360;9.736;2022-10-16T12:44:54;18.20;99.90
30648;DHT22;17683;53.360;9.736;2022-10-16T12:47:37;18.30;99.90
30648;DHT22;17683;53.360;9.736;2022-10-16T12:50:21;18.30;99.90
30648;DHT22;17683;53.360;9.736;2022-10-16T12:52:48;18.40;99.90
30648;DHT22;17683;53.360;9.736;2022-10-16T12:55:19;18.40;99.90
30648;DHT22;17683;53.360;9.736;2022-10-16T12:58:09;18.40;99.90
30648;DHT22;17683;53.360;9.736;2022-10-16T13:00:53;18.40;99.90
30648;DHT22;17683;53.360;9.736;2022-10-16T13:03:27;18.40;99.90
30648;DHT22;17683;53.360;9.736;2022-10-16T13:17:11;18.40;99.90
30648;DHT22;17683;53.360;9.736;2022-10-16T13:19:44;18.40;99.90
30648;DHT22;17683;53.360;9.736;2022-10-16T13:22:52;18.30;99.90
30648;DHT22;17683;53.360;9.736;2022-10-16T13:28:12;18.30;99.90
30648;DHT22;17683;53.360;9.736;2022-10-16T13:30:39;18.30;99.90
30648;DHT22;17683;53.360;9.736;2022-10-16T13:35:57;18.20;99.90
30648;DHT22;17683;53.360;9.736;2022-10-16T13:38:29;18.10;99.90
30648;DHT22;17683;53.360;9.736;2022-10-16T13:41:02;18.00;99.90
30648;DHT22;17683;53.360;9.736;2022-10-16T13:46:22;18.00;99.90
30648;DHT22;17683;53.360;9.736;2022-10-16T13:49:00;17.90;99.90
30648;DHT22;17683;53.360;9.736;2022-10-16T13:51:26;17.90;99.90
30648;DHT22;17683;53.360;9.736;2022-10-16T13:53:52;17.90;99.90
30648;DHT22;17683;53.360;9.736;2022-10-16T13:56:21;17.90;99.90
30648;DHT22;17683;53.360;9.736;2022-10-16T13:59:05;17.90;99.90
30648;DHT22;17683;53.360;9.736;2022-10-16T14:01:40;17.90;99.90
30648;DHT22;17683;53.360;9.736;2022-10-16T14:04:09;17.80;99.90
30648;DHT22;17683;53.360;9.736;2022-10-16T14:06:36;17.80;99.90
30648;DHT22;17683;53.360;9.736;2022-10-16T14:11:50;17.70;99.90
30648;DHT22;17683;53.360;9.736;2022-10-16T14:14:18;17.70;99.90
30648;DHT22;17683;53.360;9.736;2022-10-16T14:16:44;17.60;99.90
30648;DHT22;17683;53.360;9.736;2022-10-16T14:19:28;17.60;99.90
30648;DHT22;17683;53.360;9.736;2022-10-16T14:21:56;17.60;99.90
30648;DHT22;17683;53.360;9.736;2022-10-16T14:24:27;17.60;99.90
30648;DHT22;17683;53.360;9.736;2022-10-16T14:26:57;17.60;99.90
30648;DHT22;17683;53.360;9.736;2022-10-16T14:29:25;17.50;99.90
30648;DHT22;17683;53.360;9.736;2022-10-16T14:31:59;17.60;99.90
30648;DHT22;17683;53.360;9.736;2022-10-16T14:34:36;17.50;99.90
30648;DHT22;17683;53.360;9.736;2022-10-16T14:37:27;17.50;99.90
30648;DHT22;17683;53.360;9.736;2022-10-16T14:39:54;17.50;99.90
30648;DHT22;17683;53.360;9.736;2022-10-16T14:42:22;17.40;99.90
30648;DHT22;17683;53.360;9.736;2022-10-16T14:44:52;17.40;99.90
30648;DHT22;17683;53.360;9.736;2022-10-16T14:47:21;17.30;99.90
30648;DHT22;17683;53.360;9.736;2022-10-16T14:49:50;17.30;99.90
30648;DHT22;17683;53.360;9.736;2022-10-16T14:52:16;17.20;99.90
30648;DHT22;17683;53.360;9.736;2022-10-16T14:54:42;17.20;99.90
30648;DHT22;17683;53.360;9.736;2022-10-16T14:57:23;17.20;99.90
30648;DHT22;17683;53.360;9.736;2022-10-16T14:59:49;17.00;99.90
30648;DHT22;17683;53.360;9.736;2022-10-16T15:04:43;17.00;99.90
30648;DHT22;17683;53.360;9.736;2022-10-16T15:07:09;16.90;99.90
30648;DHT22;17683;53.360;9.736;2022-10-16T15:09:35;16.90;99.90
30648;DHT22;17683;53.360;9.736;2022-10-16T15:12:00;16.90;99.90
30648;DHT22;17683;53.360;9.736;2022-10-16T15:14:26;16.80;99.90
30648;DHT22;17683;53.360;9.736;2022-10-16T15:16:52;16.70;99.90
30648;DHT22;17683;53.360;9.736;2022-10-16T15:19:18;16.60;99.90
30648;DHT22;17683;53.360;9.736;2022-10-16T15:21:43;16.60;99.90
30648;DHT22;17683;53.360;9.736;2022-10-16T15:24:12;16.60;99.90
30648;DHT22;17683;53.360;9.736;2022-10-16T15:26:38;16.50;99.90
30648;DHT22;17683;53.360;9.736;2022-10-16T15:29:04;16.50;99.90
30648;DHT22;17683;53.360;9.736;2022-10-16T15:31:30;16.40;99.90
30648;DHT22;17683;53.360;9.736;2022-10-16T15:33:56;16.30;99.90
30648;DHT22;17683;53.360;9.736;2022-10-16T15:36:31;16.30;99.90
30648;DHT22;17683;53.360;9.736;2022-10-16T15:38:59;16.20;99.90
30648;DHT22;17683;53.360;9.736;2022-10-16T15:41:25;16.10;99.90
30648;DHT22;17683;53.360;9.736;2022-10-16T15:43:51;16.10;99.90
30648;DHT22;17683;53.360;9.736;2022-10-16T15:46:22;16.00;99.90
30648;DHT22;17683;53.360;9.736;2022-10-16T15:48:49;15.90;99.90
30648;DHT22;17683;53.360;9.736;2022-10-16T15:51:15;15.80;99.90
30648;DHT22;17683;53.360;9.736;2022-10-16T15:53:42;15.70;99.90
30648;DHT22;17683;53.360;9.736;2022-10-16T15:56:09;15.60;99.90
30648;DHT22;17683;53.360;9.736;2022-10-16T15:58:35;15.50;99.90
30648;DHT22;17683;53.360;9.736;2022-10-16T16:01:01;15.40;99.90
30648;DHT22;17683;53.360;9.736;2022-10-16T16:03:28;15.40;99.90
30648;DHT22;17683;53.360;9.736;2022-10-16T16:05:54;15.30;99.90
30648;DHT22;17683;53.360;9.736;2022-10-16T16:08:20;15.20;99.90
30648;DHT22;17683;53.360;9.736;2022-10-16T16:10:51;15.10;99.90
30648;DHT22;17683;53.360;9.736;2022-10-16T16:13:22;15.10;99.90
30648;DHT22;17683;53.360;9.736;2022-10-16T16:15:47;14.90;99.90
30648;DHT22;17683;53.360;9.736;2022-10-16T16:18:13;14.90;99.90
30648;DHT22;17683;53.360;9.736;2022-10-16T16:20:39;14.80;99.90
30648;DHT22;17683;53.360;9.736;2022-10-16T16:23:04;14.70;99.90
30648;DHT22;17683;53.360;9.736;2022-10-16T16:25:30;14.60;99.90
30648;DHT22;17683;53.360;9.736;2022-10-16T16:27:56;14.60;99.90
30648;DHT22;17683;53.360;9.736;2022-10-16T16:30:21;14.50;99.90
30648;DHT22;17683;53.360;9.736;2022-10-16T16:32:47;14.40;99.90
30648;DHT22;17683;53.360;9.736;2022-10-16T16:35:13;14.30;99.90
30648;DHT22;17683;53.360;9.736;2022-10-16T16:37:39;14.20;99.90
30648;DHT22;17683;53.360;9.736;2022-10-16T16:40:05;14.20;99.90
30648;DHT22;17683;53.360;9.736;2022-10-16T16:42:30;14.10;99.90
30648;DHT22;17683;53.360;9.736;2022-10-16T16:44:56;14.10;99.90
30648;DHT22;17683;53.360;9.736;2022-10-16T16:47:22;14.00;99.90
30648;DHT22;17683;53.360;9.736;2022-10-16T16:49:48;13.90;99.90
30648;DHT22;17683;53.360;9.736;2022-10-16T16:52:14;13.90;99.90
30648;DHT22;17683;53.360;9.736;2022-10-16T16:54:40;13.80;99.90
30648;DHT22;17683;53.360;9.736;2022-10-16T16:57:06;13.70;99.90
30648;DHT22;17683;53.360;9.736;2022-10-16T16:59:32;13.60;99.90
30648;DHT22;17683;53.360;9.736;2022-10-16T17:01:59;13.60;99.90
30648;DHT22;17683;53.360;9.736;2022-10-16T17:04:25;13.50;99.90
30648;DHT22;17683;53.360;9.736;2022-10-16T17:06:53;13.50;99.90
30648;DHT22;17683;53.360;9.736;2022-10-16T17:09:19;13.40;99.90
30648;DHT22;17683;53.360;9.736;2022-10-16T17:11:45;13.40;99.90
30648;DHT22;17683;53.360;9.736;2022-10-16T17:14:12;13.30;99.90
30648;DHT22;17683;53.360;9.736;2022-10-16T17:16:39;13.30;99.90
30648;DHT22;17683;53.360;9.736;2022-10-16T17:19:11;13.20;99.90
30648;DHT22;17683;53.360;9.736;2022-10-16T17:21:37;13.20;99.90
30648;DHT22;17683;53.360;9.736;2022-10-16T17:24:03;13.10;99.90
30648;DHT22;17683;53.360;9.736;2022-10-16T17:26:29;13.10;99.90
30648;DHT22;17683;53.360;9.736;2022-10-16T17:28:58;13.00;99.90
30648;DHT22;17683;53.360;9.736;2022-10-16T17:31:28;13.00;99.90
30648;DHT22;17683;53.360;9.736;2022-10-16T17:33:54;12.90;99.90
30648;DHT22;17683;53.360;9.736;2022-10-16T17:36:21;12.90;99.90